createdAt,value
2022-12-08T12:47:35.324Z,11.02
2022-12-08T12:57:50.186Z,10.18
2022-12-08T13:07:58.315Z,8.85
2022-12-08T13:17:58.248Z,9.70
2022-12-08T13:27:55.686Z,9.88
2022-12-08T13:37:55.527Z,10.70
2022-12-08T13:58:37.967Z,8.85
2022-12-08T14:09:00.025Z,8.90
2022-12-08T14:18:52.682Z,9.73
2022-12-08T14:28:50.351Z,8.98
2022-12-08T14:38:57.567Z,8.65
2022-12-08T14:48:56.816Z,10.05
2022-12-08T14:59:05.670Z,8.75
2022-12-08T15:09:32.436Z,8.35
2022-12-08T15:19:32.413Z,8.68
2022-12-08T15:29:30.960Z,8.50
2022-12-08T15:39:33.220Z,9.32
2022-12-08T15:49:30.640Z,9.45
2022-12-08T15:59:27.855Z,9.57
2022-12-08T17:39:00.788Z,1.55
2022-12-08T17:48:57.422Z,1.65
2022-12-08T17:58:55.055Z,2.10
2022-12-08T18:08:51.784Z,1.38
2022-12-08T18:18:48.767Z,1.42
2022-12-08T18:28:45.484Z,1.20
2022-12-08T18:38:42.443Z,1.58
2022-12-08T18:48:41.881Z,3.17
2022-12-08T18:58:38.872Z,1.63
2022-12-08T19:08:35.832Z,1.30
2022-12-08T19:18:32.503Z,2.10
2022-12-08T19:28:29.154Z,1.40
2022-12-08T19:38:25.839Z,1.50
2022-12-08T19:48:22.558Z,1.58
2022-12-08T19:58:19.384Z,1.38
2022-12-08T20:08:16.488Z,1.15
2022-12-08T20:18:16.302Z,1.30
2022-12-08T20:28:13.410Z,1.30
2022-12-08T20:38:10.633Z,1.45
2022-12-08T20:48:07.353Z,1.15
2022-12-08T20:58:04.070Z,1.40
2022-12-08T21:17:54.943Z,1.23
